createdAt,value
2023-02-03T00:00:40.568Z,25.74
2023-02-03T00:01:40.583Z,25.76
2023-02-03T00:02:40.589Z,25.76
2023-02-03T00:03:40.516Z,25.76
2023-02-03T00:04:40.544Z,25.74
2023-02-03T00:55:21.280Z,25.76
2023-02-03T00:56:22.168Z,25.76
2023-02-03T00:57:22.158Z,25.79
2023-02-03T00:58:22.150Z,25.78
2023-02-03T00:59:22.151Z,25.75
2023-02-03T01:00:22.170Z,25.78
2023-02-03T01:01:22.201Z,25.76
2023-02-03T01:02:22.214Z,25.78
2023-02-03T01:03:22.109Z,25.78
2023-02-03T01:04:22.098Z,25.79
2023-02-03T01:05:22.087Z,25.76
2023-02-03T01:06:22.084Z,25.78
2023-02-03T01:07:22.067Z,25.75
2023-02-03T01:08:22.090Z,25.75
2023-02-03T01:09:22.057Z,25.75
2023-02-03T01:10:22.048Z,25.75
2023-02-03T01:11:22.064Z,25.75
2023-02-03T01:12:22.026Z,25.76
2023-02-03T01:13:22.104Z,25.75
2023-02-03T01:14:22.019Z,25.76
2023-02-03T01:15:22.007Z,25.75
2023-02-03T01:16:22.062Z,25.75
2023-02-03T01:17:21.985Z,25.76
2023-02-03T01:18:21.975Z,25.75
2023-02-03T01:19:21.961Z,25.76
2023-02-03T01:20:21.955Z,25.75
2023-02-03T01:21:21.989Z,25.75
2023-02-03T01:22:21.939Z,25.74
2023-02-03T01:23:21.934Z,25.74
2023-02-03T01:24:21.924Z,25.76
2023-02-03T01:25:21.922Z,25.75
2023-02-03T01:26:21.993Z,25.76
2023-02-03T01:27:21.919Z,25.72
2023-02-03T01:28:21.887Z,25.76
2023-02-03T01:29:21.890Z,25.74
2023-02-03T01:30:21.871Z,25.75
2023-02-03T01:31:22.026Z,25.72
2023-02-03T01:32:21.859Z,25.74
2023-02-03T01:33:21.843Z,25.75
2023-02-03T01:34:21.843Z,25.74
2023-02-03T01:35:21.846Z,25.72
2023-02-03T01:36:21.879Z,25.72
2023-02-03T01:37:21.819Z,25.74
2023-02-03T01:38:21.800Z,25.74
2023-02-03T01:39:21.790Z,25.74
2023-02-03T01:40:21.810Z,25.72
2023-02-03T01:41:21.769Z,25.72
2023-02-03T01:42:21.790Z,25.72
2023-02-03T01:43:21.831Z,25.74
2023-02-03T01:44:21.767Z,25.72
2023-02-03T01:45:21.739Z,25.72
2023-02-03T01:46:21.761Z,25.71
2023-02-03T01:47:21.760Z,25.74
2023-02-03T01:48:21.710Z,25.71
2023-02-03T01:49:21.727Z,25.71
2023-02-03T01:50:21.695Z,25.74
2023-02-03T01:51:21.677Z,25.72
2023-02-03T01:52:21.669Z,25.72
2023-02-03T01:53:21.686Z,25.74
2023-02-03T01:54:21.654Z,25.72
2023-02-03T01:55:21.643Z,25.74
2023-02-03T01:56:21.632Z,25.72
2023-02-03T01:57:21.635Z,25.74
2023-02-03T01:58:21.642Z,25.72
2023-02-03T01:59:21.638Z,25.72
2023-02-03T02:00:21.592Z,25.72
2023-02-03T02:01:21.672Z,25.72
2023-02-03T02:02:21.604Z,25.72
2023-02-03T02:03:21.565Z,25.72
2023-02-03T02:04:21.561Z,25.74
2023-02-03T02:05:21.609Z,25.71
2023-02-03T02:06:21.537Z,25.72
2023-02-03T02:07:21.534Z,25.74
2023-02-03T02:08:21.531Z,25.72
2023-02-03T02:09:21.522Z,25.71
2023-02-03T02:10:21.504Z,25.74
2023-02-03T02:11:21.503Z,25.74
2023-02-03T02:12:21.495Z,25.72
2023-02-03T02:13:21.476Z,25.74
2023-02-03T02:14:21.469Z,25.71
2023-02-03T02:15:21.488Z,25.74
2023-02-03T02:16:21.551Z,25.74
2023-02-03T02:17:21.472Z,25.74
2023-02-03T02:18:21.435Z,25.74
2023-02-03T02:19:21.421Z,25.72
2023-02-03T02:20:21.419Z,25.71
2023-02-03T02:21:21.412Z,25.72
2023-02-03T02:22:21.396Z,25.72
2023-02-03T02:23:21.385Z,25.72
2023-02-03T02:24:21.376Z,25.71
2023-02-03T02:25:21.395Z,25.69
2023-02-03T02:26:21.363Z,25.72
2023-02-03T02:27:21.361Z,25.71
2023-02-03T02:28:21.346Z,25.74
2023-02-03T02:29:21.343Z,25.71
2023-02-03T02:30:21.330Z,25.74
2023-02-03T02:31:21.427Z,25.71
2023-02-03T02:32:21.305Z,25.71
2023-02-03T02:33:21.292Z,25.72
2023-02-03T02:34:21.287Z,25.71
2023-02-03T02:35:21.291Z,25.72
2023-02-03T02:36:21.271Z,25.71
2023-02-03T02:37:21.256Z,25.72
2023-02-03T02:38:21.271Z,25.71
2023-02-03T02:39:21.235Z,25.72
2023-02-03T02:40:21.237Z,25.71
2023-02-03T02:41:21.224Z,25.72
2023-02-03T02:42:21.208Z,25.71
2023-02-03T02:43:21.209Z,25.71
2023-02-03T02:44:21.194Z,25.72
2023-02-03T02:45:21.184Z,25.71
2023-02-03T02:46:21.210Z,25.69
2023-02-03T02:47:21.190Z,25.69
2023-02-03T02:48:21.156Z,25.72
2023-02-03T02:49:21.164Z,25.71
2023-02-03T02:50:21.138Z,25.69
2023-02-03T02:51:21.131Z,25.74
2023-02-03T02:52:21.116Z,25.71
2023-02-03T02:53:21.112Z,25.72
2023-02-03T02:54:21.169Z,25.71
2023-02-03T02:55:21.088Z,25.72
2023-02-03T02:56:21.107Z,25.71
2023-02-03T02:57:21.072Z,25.69
2023-02-03T02:58:21.065Z,25.72
2023-02-03T02:59:21.061Z,25.71
2023-02-03T03:00:21.056Z,25.71
2023-02-03T03:01:21.095Z,25.72
2023-02-03T03:02:21.035Z,25.71
2023-02-03T03:03:21.045Z,25.69
2023-02-03T03:04:21.010Z,25.72
2023-02-03T03:05:21.012Z,25.71
2023-02-03T03:06:20.994Z,25.72
2023-02-03T03:07:20.980Z,25.69
2023-02-03T03:08:20.977Z,25.71
2023-02-03T03:09:20.990Z,25.74
2023-02-03T03:10:20.952Z,25.72
2023-02-03T03:11:20.950Z,25.74
2023-02-03T03:12:20.939Z,25.71
2023-02-03T03:13:20.927Z,25.72
2023-02-03T03:14:20.914Z,25.71
2023-02-03T03:15:20.927Z,25.72
2023-02-03T03:16:20.985Z,25.71
2023-02-03T03:17:20.888Z,25.72
2023-02-03T03:18:20.881Z,25.71
2023-02-03T03:19:20.903Z,25.71
2023-02-03T03:20:20.862Z,25.71
2023-02-03T03:21:20.852Z,25.74
2023-02-03T03:22:20.849Z,25.72
2023-02-03T03:23:20.845Z,25.72
2023-02-03T03:24:20.821Z,25.71
2023-02-03T03:25:20.821Z,25.71
2023-02-03T03:26:20.806Z,25.69
2023-02-03T03:27:20.821Z,25.69
2023-02-03T03:28:20.791Z,25.68
2023-02-03T03:29:20.777Z,25.68
2023-02-03T03:30:20.776Z,25.69
2023-02-03T03:31:20.931Z,25.69
2023-02-03T03:32:20.748Z,25.71
2023-02-03T03:33:20.746Z,25.71
2023-02-03T03:34:20.744Z,25.69
2023-02-03T03:35:20.751Z,25.71
2023-02-03T03:36:21.452Z,25.71
2023-02-03T03:37:20.698Z,25.71
2023-02-03T03:38:20.698Z,25.67
2023-02-03T03:39:20.685Z,25.69
2023-02-03T03:40:20.679Z,25.69
2023-02-03T03:41:20.667Z,25.69
2023-02-03T03:42:20.657Z,25.69
2023-02-03T03:43:20.669Z,25.69
2023-02-03T03:44:20.637Z,25.69
2023-02-03T03:45:20.633Z,25.71
2023-02-03T03:46:20.642Z,25.71
2023-02-03T03:47:20.613Z,25.72
2023-02-03T03:48:20.602Z,25.69
2023-02-03T03:49:20.590Z,25.71
2023-02-03T03:50:20.597Z,25.68
2023-02-03T03:51:20.620Z,25.69
2023-02-03T03:52:20.564Z,25.68
2023-02-03T03:53:20.557Z,25.71
2023-02-03T03:54:20.557Z,25.69
2023-02-03T03:55:20.548Z,25.69
2023-02-03T03:56:20.532Z,25.69
2023-02-03T03:57:20.531Z,25.69
2023-02-03T03:58:20.514Z,25.69
2023-02-03T03:59:20.500Z,25.68
2023-02-03T04:00:20.490Z,25.69
2023-02-03T04:01:21.569Z,25.71
2023-02-03T04:02:20.544Z,25.69
2023-02-03T04:03:20.557Z,25.69
2023-02-03T04:04:20.493Z,25.68
2023-02-03T04:05:20.457Z,25.68
2023-02-03T04:06:20.455Z,25.69
2023-02-03T04:07:20.449Z,25.69
2023-02-03T04:08:20.422Z,25.69
2023-02-03T04:09:20.435Z,25.69
2023-02-03T04:10:20.403Z,25.68
2023-02-03T04:11:20.392Z,25.69
2023-02-03T04:12:20.398Z,25.67
2023-02-03T04:13:20.375Z,25.71
2023-02-03T04:14:20.363Z,25.71
2023-02-03T04:15:20.354Z,25.68
2023-02-03T04:16:20.483Z,25.69
2023-02-03T04:17:20.574Z,25.65
2023-02-03T04:18:20.335Z,25.65
2023-02-03T04:19:20.329Z,25.69
2023-02-03T04:20:20.312Z,25.69
2023-02-03T04:21:20.309Z,25.67
2023-02-03T04:22:20.290Z,25.69
2023-02-03T04:23:20.316Z,25.68
2023-02-03T04:24:20.275Z,25.69
2023-02-03T04:25:20.267Z,25.69
2023-02-03T04:26:20.268Z,25.67
2023-02-03T04:27:20.247Z,25.68
2023-02-03T04:28:20.235Z,25.69
2023-02-03T04:29:20.225Z,25.69
2023-02-03T04:30:20.238Z,25.68
2023-02-03T04:31:20.333Z,25.69
2023-02-03T04:32:20.197Z,25.69
2023-02-03T04:33:20.195Z,25.67
2023-02-03T04:34:20.231Z,25.69
2023-02-03T04:35:20.195Z,25.68
2023-02-03T04:36:20.160Z,25.67
2023-02-03T04:37:20.151Z,25.69
2023-02-03T04:38:20.149Z,25.68
2023-02-03T04:39:20.160Z,25.67
2023-02-03T04:40:20.139Z,25.68
2023-02-03T04:41:20.139Z,25.67
2023-02-03T04:42:20.114Z,25.65
2023-02-03T04:43:20.095Z,25.65
2023-02-03T04:44:20.088Z,25.65
2023-02-03T04:45:20.086Z,25.68
2023-02-03T04:46:20.069Z,25.67
2023-02-03T04:47:20.092Z,25.67
2023-02-03T04:48:20.057Z,25.68
2023-02-03T04:49:20.047Z,25.67
2023-02-03T04:50:20.033Z,25.68
2023-02-03T04:51:20.021Z,25.68
2023-02-03T04:52:20.020Z,25.68
2023-02-03T04:53:20.005Z,25.67
2023-02-03T04:54:20.001Z,25.68
2023-02-03T04:55:20.012Z,25.67
2023-02-03T04:56:19.995Z,25.67
2023-02-03T04:57:19.975Z,25.67
2023-02-03T04:58:19.959Z,25.68
2023-02-03T04:59:19.960Z,25.68
2023-02-03T05:00:19.936Z,25.69
2023-02-03T05:01:19.986Z,25.67
2023-02-03T05:02:19.927Z,25.71
2023-02-03T05:03:20.078Z,25.68
2023-02-03T05:04:19.905Z,25.69
2023-02-03T05:05:19.892Z,25.68
2023-02-03T05:06:19.893Z,25.67
2023-02-03T05:07:19.883Z,25.67
2023-02-03T05:08:19.865Z,25.65
2023-02-03T05:09:19.861Z,25.67
2023-02-03T05:10:19.853Z,25.65
2023-02-03T05:11:19.864Z,25.65
2023-02-03T05:12:19.845Z,25.67
2023-02-03T05:13:19.816Z,25.69
2023-02-03T05:14:19.809Z,25.67
2023-02-03T05:15:19.803Z,25.69
2023-02-03T05:16:19.845Z,25.68
2023-02-03T05:17:19.778Z,25.68
2023-02-03T05:18:19.781Z,25.69
2023-02-03T05:19:19.767Z,25.69
2023-02-03T05:20:19.763Z,25.67
2023-02-03T05:21:19.742Z,25.67
2023-02-03T05:22:19.732Z,25.67
2023-02-03T05:23:19.727Z,25.67
2023-02-03T05:24:19.720Z,25.68
2023-02-03T05:25:19.714Z,25.68
2023-02-03T05:26:19.696Z,25.67
2023-02-03T05:27:19.715Z,25.67
2023-02-03T05:28:19.744Z,25.68
2023-02-03T05:29:19.668Z,25.69
2023-02-03T05:30:19.663Z,25.67
2023-02-03T05:31:19.835Z,25.68
2023-02-03T05:32:19.642Z,25.69
2023-02-03T05:33:19.636Z,25.68
2023-02-03T05:34:19.634Z,25.68
2023-02-03T05:35:19.618Z,25.67
2023-02-03T05:36:19.613Z,25.68
2023-02-03T05:37:19.608Z,25.68
2023-02-03T05:38:19.604Z,25.67
2023-02-03T05:39:19.581Z,25.68
2023-02-03T05:40:19.581Z,25.69
2023-02-03T05:41:19.577Z,25.67
2023-02-03T05:42:19.578Z,25.64
2023-02-03T05:43:19.562Z,25.67
2023-02-03T05:44:19.532Z,25.67
2023-02-03T05:45:20.055Z,25.65
2023-02-03T05:46:19.583Z,25.65
2023-02-03T05:47:19.507Z,25.68
2023-02-03T05:48:19.506Z,25.67
2023-02-03T05:49:19.492Z,25.67
2023-02-03T05:50:19.472Z,25.68
2023-02-03T05:51:19.471Z,25.67
2023-02-03T05:52:19.472Z,25.65
2023-02-03T05:53:19.454Z,25.67
2023-02-03T05:54:19.441Z,25.67
2023-02-03T05:55:19.435Z,25.68
2023-02-03T05:56:19.428Z,25.67
2023-02-03T05:57:19.414Z,25.67
2023-02-03T05:58:19.407Z,25.69
2023-02-03T05:59:19.421Z,25.67
2023-02-03T06:00:19.391Z,25.67
2023-02-03T06:01:19.413Z,25.65
2023-02-03T06:02:19.380Z,25.67
2023-02-03T06:03:19.403Z,25.65
2023-02-03T06:04:19.428Z,25.67
2023-02-03T06:05:19.341Z,25.68
2023-02-03T06:06:19.467Z,25.67
2023-02-03T06:07:19.333Z,25.65
2023-02-03T06:08:19.317Z,25.68
2023-02-03T06:09:19.302Z,25.67
2023-02-03T06:10:19.296Z,25.65
2023-02-03T06:11:19.289Z,25.67
2023-02-03T06:12:19.314Z,25.67
2023-02-03T06:13:19.280Z,25.65
2023-02-03T06:14:19.263Z,25.69
2023-02-03T06:15:19.276Z,25.67
2023-02-03T06:16:19.297Z,25.64
2023-02-03T06:17:19.236Z,25.65
2023-02-03T06:18:19.227Z,25.64
2023-02-03T06:19:19.214Z,25.67
2023-02-03T06:20:19.217Z,25.67
2023-02-03T06:21:19.198Z,25.64
2023-02-03T06:22:19.526Z,25.65
2023-02-03T06:23:19.340Z,25.67
2023-02-03T06:24:19.173Z,25.67
2023-02-03T06:25:19.156Z,25.65
2023-02-03T06:26:19.147Z,25.65
2023-02-03T06:27:19.144Z,25.64
2023-02-03T06:28:19.643Z,25.65
2023-02-03T06:29:19.123Z,25.67
2023-02-03T06:30:19.111Z,25.62
2023-02-03T06:31:19.265Z,25.65
2023-02-03T06:32:19.098Z,25.62
2023-02-03T06:33:19.591Z,25.64
2023-02-03T06:34:19.075Z,25.64
2023-02-03T06:35:19.088Z,25.61
2023-02-03T06:36:19.060Z,25.65
2023-02-03T06:37:19.046Z,25.65
2023-02-03T06:38:19.043Z,25.65
2023-02-03T06:39:19.032Z,25.64
2023-02-03T06:40:19.035Z,25.64
2023-02-03T06:41:19.038Z,25.65
2023-02-03T06:42:19.045Z,25.68
2023-02-03T06:43:19.035Z,25.65
2023-02-03T06:44:18.989Z,25.67
2023-02-03T06:45:18.998Z,25.68
2023-02-03T06:46:19.035Z,25.68
2023-02-03T06:47:19.007Z,25.69
2023-02-03T06:48:19.042Z,25.69
2023-02-03T06:49:18.975Z,25.69
2023-02-03T06:50:18.951Z,25.69
2023-02-03T06:51:18.931Z,25.71
2023-02-03T06:52:18.929Z,25.74
2023-02-03T06:53:19.042Z,25.69
2023-02-03T06:54:18.890Z,25.75
2023-02-03T06:55:18.950Z,25.75
2023-02-03T06:56:18.899Z,25.74
2023-02-03T06:57:19.046Z,25.74
2023-02-03T06:58:22.058Z,25.74
2023-02-03T06:59:19.862Z,25.75
2023-02-03T07:00:19.391Z,25.74
2023-02-03T07:01:18.953Z,25.76
2023-02-03T07:02:19.140Z,25.75
2023-02-03T07:03:18.859Z,25.75
2023-02-03T07:04:34.436Z,25.75
2023-02-03T07:05:22.016Z,25.74
2023-02-03T07:06:18.834Z,25.72
2023-02-03T07:07:19.198Z,25.72
2023-02-03T07:08:19.058Z,25.74
2023-02-03T07:09:18.788Z,25.74
2023-02-03T07:10:18.786Z,25.72
2023-02-03T07:11:18.770Z,25.71
2023-02-03T07:12:18.762Z,25.71
2023-02-03T07:13:19.085Z,25.71
2023-02-03T07:14:18.748Z,25.72
2023-02-03T07:15:18.737Z,25.72
2023-02-03T07:16:18.802Z,25.69
2023-02-03T07:17:20.729Z,25.74
2023-02-03T07:18:35.967Z,25.71
2023-02-03T07:19:18.723Z,25.72
2023-02-03T07:20:18.685Z,25.69
2023-02-03T07:21:18.674Z,25.71
2023-02-03T07:22:18.662Z,25.72
2023-02-03T07:23:18.672Z,25.71
2023-02-03T07:24:18.639Z,25.72
2023-02-03T07:25:18.636Z,25.69
2023-02-03T07:26:19.167Z,25.72
2023-02-03T07:27:18.594Z,25.69
2023-02-03T07:28:19.661Z,25.71
2023-02-03T07:29:19.059Z,25.69
2023-02-03T07:30:18.566Z,25.71
2023-02-03T07:31:18.702Z,25.68
2023-02-03T07:32:18.540Z,25.69
2023-02-03T07:33:18.537Z,25.69
2023-02-03T07:34:18.528Z,25.68
2023-02-03T07:35:18.538Z,25.69
2023-02-03T07:36:18.503Z,25.69
2023-02-03T07:37:18.530Z,25.68
2023-02-03T07:38:18.587Z,25.69
2023-02-03T07:39:18.472Z,25.67
2023-02-03T07:40:18.571Z,25.68
2023-02-03T07:41:18.528Z,25.67
2023-02-03T07:42:18.460Z,25.68
2023-02-03T07:43:18.644Z,25.68
2023-02-03T07:44:18.571Z,25.68
2023-02-03T07:45:18.478Z,25.69
2023-02-03T07:46:18.614Z,25.67
2023-02-03T07:47:18.407Z,25.69
2023-02-03T07:48:18.395Z,25.68
2023-02-03T07:49:18.391Z,25.71
2023-02-03T07:50:18.379Z,25.69
2023-02-03T07:51:18.678Z,25.65
2023-02-03T07:52:18.864Z,25.68
2023-02-03T07:53:18.375Z,25.69
2023-02-03T07:54:18.589Z,25.69
2023-02-03T07:55:18.359Z,25.68
2023-02-03T07:56:18.328Z,25.68
2023-02-03T07:57:18.340Z,25.69
2023-02-03T07:58:18.303Z,25.69
2023-02-03T07:59:18.587Z,25.68
2023-02-03T08:00:18.295Z,25.69
2023-02-03T08:01:19.301Z,25.71
2023-02-03T08:02:18.285Z,25.71
2023-02-03T08:03:18.327Z,25.71
2023-02-03T08:04:18.305Z,25.69
2023-02-03T08:05:18.301Z,25.69
2023-02-03T08:06:18.234Z,25.71
2023-02-03T08:07:18.249Z,25.71
2023-02-03T08:08:18.214Z,25.69
2023-02-03T08:09:18.575Z,25.68
2023-02-03T08:10:18.216Z,25.69
2023-02-03T08:11:18.215Z,25.69
2023-02-03T08:12:18.183Z,25.69
2023-02-03T08:13:18.169Z,25.69
2023-02-03T08:14:18.836Z,25.69
2023-02-03T08:15:19.063Z,25.71
2023-02-03T08:16:18.246Z,25.68
2023-02-03T08:17:18.149Z,25.68
2023-02-03T08:18:18.155Z,25.69
2023-02-03T08:19:18.616Z,25.71
2023-02-03T08:20:19.113Z,25.68
2023-02-03T08:21:18.597Z,25.71
2023-02-03T08:22:18.108Z,25.69
2023-02-03T08:23:18.133Z,25.69
2023-02-03T08:24:18.087Z,25.69
2023-02-03T08:25:18.093Z,25.69
2023-02-03T08:26:18.134Z,25.69
2023-02-03T08:27:18.060Z,25.72
2023-02-03T08:28:18.063Z,25.69
2023-02-03T08:29:18.119Z,25.71
2023-02-03T08:30:18.085Z,25.71
2023-02-03T08:31:18.199Z,25.69
2023-02-03T08:32:18.041Z,25.71
2023-02-03T08:33:17.978Z,25.69
2023-02-03T08:34:18.129Z,25.72
2023-02-03T08:35:17.964Z,25.72
2023-02-03T08:36:17.960Z,25.71
2023-02-03T08:37:17.949Z,25.69
2023-02-03T08:38:17.958Z,25.71
2023-02-03T08:39:18.615Z,25.71
2023-02-03T08:40:18.091Z,25.72
2023-02-03T08:41:17.912Z,25.72
2023-02-03T08:42:18.101Z,25.72
2023-02-03T08:43:17.885Z,25.72
2023-02-03T08:44:17.886Z,25.72
2023-02-03T08:45:17.871Z,25.71
2023-02-03T08:46:17.904Z,25.75
2023-02-03T08:47:18.104Z,25.76
2023-02-03T08:48:17.845Z,25.75
2023-02-03T08:49:17.832Z,25.75
2023-02-03T08:50:17.838Z,25.74
2023-02-03T08:51:18.095Z,25.74
2023-02-03T08:52:19.117Z,25.76
2023-02-03T08:53:17.797Z,25.78
2023-02-03T08:54:17.792Z,25.74
2023-02-03T08:55:17.819Z,25.75
2023-02-03T08:56:18.106Z,25.76
2023-02-03T08:57:17.791Z,25.78
2023-02-03T08:59:17.740Z,25.81
2023-02-03T09:00:19.126Z,25.84
2023-02-03T09:01:17.807Z,25.85
2023-02-03T09:02:17.741Z,25.91
2023-02-03T09:03:17.727Z,25.95
2023-02-03T09:04:18.139Z,25.96
2023-02-03T09:05:18.117Z,25.99
2023-02-03T09:06:17.713Z,26.02
2023-02-03T09:07:18.146Z,26.03
2023-02-03T09:08:17.683Z,26.09
2023-02-03T09:09:18.126Z,26.12
2023-02-03T09:10:17.654Z,26.15
2023-02-03T09:11:17.702Z,26.16
2023-02-03T09:12:17.652Z,26.17
2023-02-03T09:13:17.647Z,26.21
2023-02-03T09:14:18.208Z,26.23
2023-02-03T09:15:17.622Z,26.27
2023-02-03T09:16:17.718Z,26.30
2023-02-03T09:17:17.598Z,26.34
2023-02-03T09:18:17.587Z,26.36
2023-02-03T09:19:17.587Z,26.34
2023-02-03T09:20:17.645Z,26.40
2023-02-03T09:21:32.169Z,26.40
2023-02-03T09:22:17.594Z,26.43
2023-02-03T09:23:17.586Z,26.43
2023-02-03T09:24:17.566Z,26.48
2023-02-03T09:25:17.545Z,26.47
2023-02-03T09:26:17.639Z,26.50
2023-02-03T09:27:17.529Z,26.51
2023-02-03T09:28:17.558Z,26.54
2023-02-03T09:29:17.512Z,26.54
2023-02-03T09:30:17.526Z,26.58
2023-02-03T09:31:17.793Z,26.58
2023-02-03T09:32:17.479Z,26.59
2023-02-03T09:33:17.461Z,26.62
2023-02-03T09:34:17.489Z,26.61
2023-02-03T09:35:17.457Z,26.61
2023-02-03T09:36:17.640Z,26.64
2023-02-03T09:37:17.440Z,26.65
2023-02-03T09:38:17.408Z,26.65
2023-02-03T09:39:17.624Z,26.62
2023-02-03T09:40:17.379Z,26.64
2023-02-03T09:41:17.418Z,26.62
2023-02-03T09:42:17.628Z,26.59
2023-02-03T09:43:17.380Z,26.55
2023-02-03T09:44:17.621Z,26.55
2023-02-03T09:45:17.347Z,26.54
2023-02-03T09:46:17.693Z,26.50
2023-02-03T09:47:17.331Z,26.47
2023-02-03T09:48:17.318Z,26.45
2023-02-03T09:49:17.309Z,26.43
2023-02-03T09:50:17.309Z,26.40
2023-02-03T09:51:17.623Z,26.38
2023-02-03T09:52:17.626Z,26.36
2023-02-03T09:53:17.292Z,26.34
2023-02-03T09:54:18.294Z,26.33
2023-02-03T09:55:18.429Z,26.31
2023-02-03T09:56:18.282Z,26.29
2023-02-03T09:57:17.661Z,26.26
2023-02-03T09:58:17.249Z,26.26
2023-02-03T09:59:17.248Z,26.26
2023-02-03T10:00:17.643Z,26.27
2023-02-03T10:01:17.292Z,26.21
2023-02-03T10:02:18.700Z,26.21
2023-02-03T10:03:17.337Z,26.20
2023-02-03T10:04:17.314Z,26.19
2023-02-03T10:05:17.634Z,26.19
2023-02-03T10:06:17.284Z,26.16
2023-02-03T10:07:17.280Z,26.19
2023-02-03T10:08:17.626Z,26.16
2023-02-03T10:09:17.338Z,26.16
2023-02-03T10:10:17.256Z,26.12
2023-02-03T10:11:17.633Z,26.12
2023-02-03T10:12:17.240Z,26.13
2023-02-03T10:13:17.227Z,26.10
2023-02-03T10:14:17.219Z,26.09
2023-02-03T10:15:17.226Z,26.07
2023-02-03T10:16:17.662Z,26.10
2023-02-03T10:17:17.211Z,26.10
2023-02-03T10:18:17.174Z,26.07
2023-02-03T10:19:17.176Z,26.09
2023-02-03T10:20:17.160Z,26.09
2023-02-03T10:21:17.675Z,26.06
2023-02-03T10:22:17.156Z,26.07
2023-02-03T10:23:17.139Z,26.02
2023-02-03T10:24:17.122Z,26.00
2023-02-03T10:25:17.135Z,26.02
2023-02-03T10:26:17.111Z,26.03
2023-02-03T10:27:17.111Z,26.03
2023-02-03T10:28:17.194Z,26.02
2023-02-03T10:29:17.093Z,26.03
2023-02-03T10:30:17.139Z,26.09
2023-02-03T10:31:17.282Z,26.12
2023-02-03T10:32:17.241Z,26.10
2023-02-03T10:33:17.247Z,26.15
2023-02-03T10:34:17.055Z,26.15
2023-02-03T10:35:17.037Z,26.17
2023-02-03T10:36:17.191Z,26.21
2023-02-03T10:37:17.165Z,26.21
2023-02-03T10:38:17.006Z,26.26
2023-02-03T10:39:16.990Z,26.27
2023-02-03T10:40:17.011Z,26.29
2023-02-03T10:41:17.093Z,26.29
2023-02-03T10:42:17.160Z,26.31
2023-02-03T10:43:17.151Z,26.34
2023-02-03T10:44:16.979Z,26.37
2023-02-03T10:45:17.002Z,26.37
2023-02-03T10:46:17.059Z,26.40
2023-02-03T10:47:17.198Z,26.40
2023-02-03T10:48:16.964Z,26.41
2023-02-03T10:49:16.932Z,26.40
2023-02-03T10:50:16.984Z,26.43
2023-02-03T10:51:16.939Z,26.45
2023-02-03T10:52:17.170Z,26.48
2023-02-03T10:53:16.883Z,26.50
2023-02-03T10:54:16.878Z,26.51
2023-02-03T10:55:16.890Z,26.56
2023-02-03T10:56:16.851Z,26.55
2023-02-03T10:57:17.168Z,26.54
2023-02-03T10:58:16.861Z,26.56
2023-02-03T10:59:17.859Z,26.59
2023-02-03T11:00:16.825Z,26.62
2023-02-03T11:01:16.918Z,26.61
2023-02-03T11:02:17.247Z,26.64
2023-02-03T11:03:16.834Z,26.64
2023-02-03T11:04:16.776Z,26.65
2023-02-03T11:05:16.812Z,26.68
2023-02-03T11:06:17.822Z,26.70
2023-02-03T11:07:17.173Z,26.70
2023-02-03T11:08:17.028Z,26.68
2023-02-03T11:09:16.758Z,26.71
2023-02-03T11:10:16.730Z,26.72
2023-02-03T11:11:16.710Z,26.77
2023-02-03T11:12:17.156Z,26.75
2023-02-03T11:13:16.719Z,26.78
2023-02-03T11:14:16.689Z,26.77
2023-02-03T11:15:16.832Z,26.78
2023-02-03T11:16:16.840Z,26.75
2023-02-03T11:17:17.198Z,26.78
2023-02-03T11:18:16.653Z,26.78
2023-02-03T11:19:16.671Z,26.78
2023-02-03T11:20:16.658Z,26.75
2023-02-03T11:21:16.633Z,26.77
2023-02-03T11:22:16.613Z,26.74
2023-02-03T11:23:16.681Z,26.75
2023-02-03T11:24:17.225Z,26.72
2023-02-03T11:25:16.588Z,26.71
2023-02-03T11:26:16.692Z,26.70
2023-02-03T11:27:16.584Z,26.70
2023-02-03T11:28:16.723Z,26.72
2023-02-03T11:29:16.566Z,26.68
2023-02-03T11:30:16.543Z,26.65
2023-02-03T11:31:16.634Z,26.65
2023-02-03T11:32:16.555Z,26.62
2023-02-03T11:33:16.666Z,26.61
2023-02-03T11:34:16.535Z,26.61
2023-02-03T11:35:16.532Z,26.58
2023-02-03T11:36:16.499Z,26.58
2023-02-03T11:37:17.505Z,26.56
2023-02-03T11:38:17.168Z,26.56
2023-02-03T11:39:16.516Z,26.54
2023-02-03T11:40:16.463Z,26.52
2023-02-03T11:41:16.452Z,26.52
2023-02-03T11:42:16.447Z,26.50
2023-02-03T11:43:16.694Z,26.50
2023-02-03T11:44:16.434Z,26.50
2023-02-03T11:45:16.419Z,26.48
2023-02-03T11:46:16.492Z,26.47
2023-02-03T11:47:16.400Z,26.47
2023-02-03T11:48:16.733Z,26.44
2023-02-03T11:49:16.401Z,26.44
2023-02-03T11:50:16.410Z,26.43
2023-02-03T11:51:16.400Z,26.43
2023-02-03T11:52:16.936Z,26.38
2023-02-03T11:53:16.350Z,26.43
2023-02-03T11:54:16.703Z,26.41
2023-02-03T11:55:16.335Z,26.41
2023-02-03T11:56:17.203Z,26.40
2023-02-03T11:57:16.312Z,26.36
2023-02-03T11:58:16.347Z,26.33
2023-02-03T11:59:16.684Z,26.27
2023-02-03T12:00:16.281Z,26.20
2023-02-03T12:01:16.279Z,26.15
2023-02-03T12:02:16.264Z,26.07
2023-02-03T12:03:16.780Z,26.04
2023-02-03T12:04:16.317Z,26.00
2023-02-03T12:05:16.243Z,25.96
2023-02-03T12:06:16.235Z,25.92
2023-02-03T12:07:16.257Z,25.89
2023-02-03T12:08:16.235Z,25.86
2023-02-03T12:09:16.197Z,25.82
2023-02-03T12:10:16.197Z,25.81
2023-02-03T12:11:16.190Z,25.79
2023-02-03T12:12:16.177Z,25.75
2023-02-03T12:13:16.172Z,25.74
2023-02-03T12:14:16.194Z,25.78
2023-02-03T12:15:16.151Z,25.78
2023-02-03T12:16:16.190Z,25.82
2023-02-03T12:17:16.133Z,25.85
2023-02-03T12:18:16.121Z,25.88
2023-02-03T12:19:16.207Z,25.89
2023-02-03T12:20:16.209Z,25.93
2023-02-03T12:21:16.085Z,25.97
2023-02-03T12:22:16.098Z,26.00
2023-02-03T12:23:16.090Z,26.04
2023-02-03T12:24:16.189Z,26.04
2023-02-03T12:25:16.050Z,26.10
2023-02-03T12:26:16.194Z,26.15
2023-02-03T12:27:16.036Z,26.19
2023-02-03T12:28:27.561Z,26.23
2023-02-03T12:29:16.239Z,26.23
2023-02-03T12:30:16.111Z,26.27
2023-02-03T12:31:16.132Z,26.30
2023-02-03T12:32:15.991Z,26.34
2023-02-03T12:33:15.986Z,26.34
2023-02-03T12:34:15.972Z,26.37
2023-02-03T12:35:15.956Z,26.41
2023-02-03T12:36:15.945Z,26.44
2023-02-03T12:37:16.212Z,26.44
2023-02-03T12:38:15.951Z,26.47
2023-02-03T12:39:16.224Z,26.50
2023-02-03T12:40:15.996Z,26.50
2023-02-03T12:41:15.909Z,26.52
2023-02-03T12:42:15.899Z,26.54
2023-02-03T12:43:15.888Z,26.55
2023-02-03T12:44:15.914Z,26.58
2023-02-03T12:45:15.870Z,26.61
2023-02-03T12:46:15.908Z,26.58
2023-02-03T12:47:15.863Z,26.61
2023-02-03T12:48:15.849Z,26.64
2023-02-03T12:49:15.850Z,26.67
2023-02-03T12:50:16.216Z,26.65
2023-02-03T12:51:15.822Z,26.71
2023-02-03T12:52:16.230Z,26.72
2023-02-03T12:53:15.801Z,26.75
2023-02-03T12:54:16.208Z,26.75
2023-02-03T12:55:15.817Z,26.75
2023-02-03T12:56:15.778Z,26.79
2023-02-03T12:57:15.769Z,26.82
2023-02-03T12:58:15.762Z,26.79
2023-02-03T12:59:16.230Z,26.81
2023-02-03T13:00:16.223Z,26.81
2023-02-03T13:01:16.418Z,26.81
2023-02-03T13:02:15.823Z,26.81
2023-02-03T13:03:15.719Z,26.81
2023-02-03T13:04:15.707Z,26.82
2023-02-03T13:05:15.726Z,26.83
2023-02-03T13:06:15.725Z,26.82
2023-02-03T13:07:15.688Z,26.83
2023-02-03T13:08:15.675Z,26.83
2023-02-03T13:09:15.666Z,26.83
2023-02-03T13:10:15.761Z,26.81
2023-02-03T13:11:15.678Z,26.81
2023-02-03T13:12:15.639Z,26.81
2023-02-03T13:13:15.628Z,26.82
2023-02-03T13:14:15.635Z,26.82
2023-02-03T13:15:15.711Z,26.79
2023-02-03T13:16:15.797Z,26.79
2023-02-03T13:17:15.606Z,26.79
2023-02-03T13:18:15.642Z,26.79
2023-02-03T13:19:15.584Z,26.79
2023-02-03T13:20:15.728Z,26.79
2023-02-03T13:21:15.573Z,26.81
2023-02-03T13:22:15.554Z,26.82
2023-02-03T13:23:15.561Z,26.83
2023-02-03T13:24:15.576Z,26.83
2023-02-03T13:25:15.717Z,26.85
2023-02-03T13:26:15.557Z,26.88
2023-02-03T13:27:15.599Z,26.88
2023-02-03T13:28:15.629Z,26.90
2023-02-03T13:29:15.500Z,26.90
2023-02-03T13:30:15.719Z,26.92
2023-02-03T13:31:15.649Z,26.93
2023-02-03T13:32:15.533Z,26.92
2023-02-03T13:33:15.759Z,26.92
2023-02-03T13:34:15.448Z,26.96
2023-02-03T13:35:21.607Z,26.93
2023-02-03T13:36:15.430Z,26.93
2023-02-03T13:37:15.749Z,26.92
2023-02-03T13:38:15.412Z,26.92
2023-02-03T13:39:15.411Z,26.89
2023-02-03T13:40:15.530Z,26.89
2023-02-03T13:41:15.386Z,26.88
2023-02-03T13:42:15.413Z,26.88
2023-02-03T13:43:23.047Z,26.83